Time,TemperatureF,DewpointF,PressureIn,WindDirection,WindDirectionDegrees,WindSpeedMPH,WindSpeedGustMPH,Humidity,HourlyPrecipIn,Conditions,Clouds,dailyrainin,SoftwareType,DateUTC
2013-05-25 00:02:00,54.0,43.0,30.11,WNW,297,0.0,0.0,66,0.00,,,0.03,,2013-05-25 04:02:00,
2013-05-25 00:13:00,54.0,43.0,30.11,WNW,297,0.0,0.0,66,0.00,,,0.03,,2013-05-25 04:13:00,
2013-05-25 00:23:00,54.0,43.0,30.11,WNW,297,0.0,0.0,65,0.00,,,0.03,,2013-05-25 04:23:00,
2013-05-25 00:33:00,53.0,42.0,30.11,West,278,0.0,0.0,65,0.00,,,0.03,,2013-05-25 04:33:00,
2013-05-25 00:43:00,53.0,42.0,30.11,West,278,0.0,0.0,65,0.00,,,0.03,,2013-05-25 04:43:00,
2013-05-25 00:53:00,53.0,43.0,30.11,NNW,328,0.0,0.0,68,0.00,,,0.03,,2013-05-25 04:53:00,
2013-05-25 01:02:00,52.0,41.0,30.12,NNW,328,0.0,0.0,67,0.00,,,0.03,,2013-05-25 05:02:00,
2013-05-25 01:12:00,52.0,41.0,30.12,NNW,328,0.0,0.0,67,0.00,,,0.03,,2013-05-25 05:12:00,
2013-05-25 01:22:00,52.0,41.0,30.12,NNW,328,0.0,0.0,67,0.00,,,0.03,,2013-05-25 05:22:00,
2013-05-25 01:32:00,51.0,42.0,30.12,NNW,328,0.0,0.0,70,0.00,,,0.00,,2013-05-25 05:32:00,
2013-05-25 01:43:00,51.0,42.0,30.12,NNW,328,0.0,0.0,70,0.00,,,0.00,,2013-05-25 05:43:00,
2013-05-25 01:52:00,50.0,41.0,30.12,NNW,328,0.0,0.0,72,0.00,,,0.00,,2013-05-25 05:52:00,
2013-05-25 02:02:00,50.0,41.0,30.11,NNW,328,0.0,0.0,72,0.00,,,0.00,,2013-05-25 06:02:00,
2013-05-25 02:12:00,49.0,41.0,30.11,NNW,328,0.0,0.0,73,0.00,,,0.00,,2013-05-25 06:12:00,
2013-05-25 02:21:00,49.0,41.0,30.11,NNW,328,0.0,0.0,73,0.00,,,0.00,,2013-05-25 06:21:00,
2013-05-25 02:32:00,49.0,41.0,30.12,NNW,328,0.0,0.0,75,0.00,,,0.00,,2013-05-25 06:32:00,
2013-05-25 02:42:00,49.0,41.0,30.12,NNW,328,0.0,0.0,75,0.00,,,0.00,,2013-05-25 06:42:00,
2013-05-25 02:52:00,48.0,41.0,30.12,NNW,328,0.0,0.0,78,0.00,,,0.00,,2013-05-25 06:52:00,
2013-05-25 03:01:00,48.0,41.0,30.12,NNW,328,0.0,0.0,78,0.00,,,0.00,,2013-05-25 07:01:00,
2013-05-25 03:11:00,48.0,41.0,30.12,NNW,328,0.0,0.0,78,0.00,,,0.00,,2013-05-25 07:11:00,
2013-05-25 03:22:00,47.0,41.0,30.11,NNW,328,0.0,0.0,80,0.00,,,0.00,,2013-05-25 07:22:00,
2013-05-25 03:32:00,47.0,41.0,30.12,NNW,328,0.0,0.0,81,0.00,,,0.00,,2013-05-25 07:32:00,
2013-05-25 03:42:00,47.0,41.0,30.12,NNW,328,0.0,0.0,81,0.00,,,0.00,,2013-05-25 07:42:00,
2013-05-25 03:52:00,46.0,41.0,30.12,NNW,328,0.0,0.0,81,0.00,,,0.00,,2013-05-25 07:52:00,
2013-05-25 04:02:00,46.0,41.0,30.12,NNW,328,0.0,0.0,82,0.00,,,0.00,,2013-05-25 08:02:00,
2013-05-25 04:11:00,46.0,41.0,30.12,NNW,328,0.0,0.0,82,0.00,,,0.00,,2013-05-25 08:11:00,
2013-05-25 04:22:00,46.0,41.0,30.12,NNW,328,0.0,0.0,83,0.00,,,0.00,,2013-05-25 08:22:00,
2013-05-25 04:32:00,45.0,40.0,30.11,NNW,328,0.0,0.0,83,0.00,,,0.00,,2013-05-25 08:32:00,
2013-05-25 04:42:00,45.0,41.0,30.12,NNW,328,0.0,0.0,86,0.00,,,0.00,,2013-05-25 08:42:00,
2013-05-25 04:52:00,45.0,41.0,30.12,NNW,328,0.0,0.0,86,0.00,,,0.00,,2013-05-25 08:52:00,
2013-05-25 05:02:00,45.0,41.0,30.12,NNW,328,0.0,0.0,87,0.00,,,0.00,,2013-05-25 09:02:00,
2013-05-25 05:11:00,45.0,41.0,30.12,NNW,328,0.0,0.0,87,0.00,,,0.00,,2013-05-25 09:11:00,
2013-05-25 05:21:00,45.0,42.0,30.12,NNW,328,0.0,0.0,88,0.00,,,0.00,,2013-05-25 09:21:00,
2013-05-25 05:33:00,45.0,42.0,30.13,NNW,328,0.0,0.0,89,0.00,,,0.00,,2013-05-25 09:33:00,
2013-05-25 05:43:00,45.0,42.0,30.13,NNW,328,0.0,0.0,89,0.00,,,0.00,,2013-05-25 09:43:00,
2013-05-25 05:53:00,44.0,41.0,30.13,NNW,328,0.0,0.0,89,0.00,,,0.00,,2013-05-25 09:53:00,
2013-05-25 06:03:00,44.0,41.0,30.13,NNW,328,0.0,0.0,90,0.00,,,0.00,,2013-05-25 10:03:00,
2013-05-25 06:12:00,44.0,41.0,30.13,NNW,328,0.0,0.0,90,0.00,,,0.00,,2013-05-25 10:12:00,
2013-05-25 06:23:00,44.0,41.0,30.14,NNW,328,0.0,0.0,90,0.00,,,0.00,,2013-05-25 10:23:00,
2013-05-25 06:33:00,43.0,40.0,30.14,NNW,328,0.0,0.0,90,0.00,,,0.00,,2013-05-25 10:33:00,
2013-05-25 06:42:00,43.0,40.0,30.14,NNW,328,0.0,0.0,90,0.00,,,0.00,,2013-05-25 10:42:00,
2013-05-25 06:52:00,43.0,41.0,30.15,NNW,328,0.0,0.0,91,0.00,,,0.00,,2013-05-25 10:52:00,
2013-05-25 07:02:00,44.0,42.0,30.14,NNW,328,0.0,0.0,92,0.00,,,0.00,,2013-05-25 11:02:00,
2013-05-25 07:12:00,44.0,42.0,30.14,NNW,328,0.0,0.0,92,0.00,,,0.00,,2013-05-25 11:12:00,
2013-05-25 07:22:00,44.0,42.0,30.14,NNW,328,0.0,0.0,92,0.00,,,0.00,,2013-05-25 11:22:00,
2013-05-25 07:32:00,45.0,43.0,30.15,NNW,328,0.0,0.0,92,0.00,,,0.00,,2013-05-25 11:32:00,
2013-05-25 07:42:00,45.0,43.0,30.15,NNW,328,0.0,0.0,92,0.00,,,0.00,,2013-05-25 11:42:00,
2013-05-25 07:52:00,46.0,43.0,30.15,WNW,283,0.0,0.0,88,0.00,,,0.00,,2013-05-25 11:52:00,
2013-05-25 08:01:00,49.0,42.0,30.17,West,276,0.0,1.0,77,0.00,,,0.00,,2013-05-25 12:01:00,
2013-05-25 08:12:00,49.0,42.0,30.17,West,276,0.0,1.0,77,0.00,,,0.00,,2013-05-25 12:12:00,
2013-05-25 08:22:00,51.0,42.0,30.17,North,355,0.0,4.0,70,0.00,,,0.00,,2013-05-25 12:22:00,
2013-05-25 08:32:00,52.0,42.0,30.17,North,353,0.0,3.0,68,0.00,,,0.00,,2013-05-25 12:32:00,
2013-05-25 08:42:00,52.0,42.0,30.17,North,353,0.0,3.0,68,0.00,,,0.00,,2013-05-25 12:42:00,
2013-05-25 08:52:00,53.0,42.0,30.18,ESE,102,0.0,3.0,65,0.00,,,0.00,,2013-05-25 12:52:00,
2013-05-25 09:02:00,54.0,40.0,30.19,NNW,334,0.0,1.0,60,0.00,,,0.00,,2013-05-25 13:02:00,
2013-05-25 09:11:00,54.0,40.0,30.19,NNW,334,0.0,1.0,60,0.00,,,0.00,,2013-05-25 13:11:00,
2013-05-25 09:22:00,55.0,42.0,30.19,SE,128,0.0,6.0,61,0.00,,,0.00,,2013-05-25 13:22:00,
2013-05-25 09:32:00,56.0,41.0,30.19,ENE,70,0.0,1.0,58,0.00,,,0.00,,2013-05-25 13:32:00,
2013-05-25 09:42:00,56.0,41.0,30.19,ENE,70,0.0,1.0,58,0.00,,,0.00,,2013-05-25 13:42:00,
2013-05-25 09:52:00,56.0,40.0,30.19,ENE,73,0.0,6.0,55,0.00,,,0.00,,2013-05-25 13:52:00,
2013-05-25 10:02:00,57.0,41.0,30.19,North,360,0.0,4.0,55,0.00,,,0.00,,2013-05-25 14:02:00,
2013-05-25 10:11:00,57.0,41.0,30.19,North,360,0.0,4.0,55,0.00,,,0.00,,2013-05-25 14:11:00,
2013-05-25 10:22:00,59.0,39.0,30.19,WSW,241,0.0,8.0,48,0.00,,,0.00,,2013-05-25 14:22:00,
2013-05-25 10:32:00,59.0,40.0,30.19,NNW,341,5.0,10.0,50,0.00,,,0.00,,2013-05-25 14:32:00,
2013-05-25 10:42:00,59.0,40.0,30.19,NNW,341,5.0,10.0,50,0.00,,,0.00,,2013-05-25 14:42:00,
2013-05-25 10:52:00,60.0,41.0,30.20,South,174,0.0,4.0,49,0.00,,,0.00,,2013-05-25 14:52:00,
2013-05-25 11:01:00,60.0,39.0,30.19,NNW,340,0.0,7.0,45,0.00,,,0.00,,2013-05-25 15:01:00,
2013-05-25 11:11:00,60.0,39.0,30.19,NNW,340,0.0,7.0,45,0.00,,,0.00,,2013-05-25 15:11:00,
2013-05-25 11:22:00,61.0,41.0,30.19,WNW,283,0.0,7.0,47,0.00,,,0.00,,2013-05-25 15:22:00,
2013-05-25 11:33:00,63.0,40.0,30.19,NW,326,1.0,5.0,43,0.00,,,0.00,,2013-05-25 15:33:00,
2013-05-25 11:43:00,63.0,40.0,30.19,NW,326,1.0,5.0,43,0.00,,,0.00,,2013-05-25 15:43:00,
2013-05-25 11:53:00,63.0,42.0,30.19,WSW,239,3.0,10.0,46,0.00,,,0.00,,2013-05-25 15:53:00,
2013-05-25 12:03:00,64.0,42.0,30.18,South,183,0.0,3.0,45,0.00,,,0.00,,2013-05-25 16:03:00,
2013-05-25 12:12:00,64.0,42.0,30.18,South,183,0.0,3.0,45,0.00,,,0.00,,2013-05-25 16:12:00,
2013-05-25 12:23:00,64.0,40.0,30.18,NW,326,0.0,14.0,42,0.00,,,0.00,,2013-05-25 16:23:00,
2013-05-25 12:32:00,65.0,39.0,30.17,NNE,20,0.0,10.0,38,0.00,,,0.00,,2013-05-25 16:32:00,
2013-05-25 12:42:00,65.0,39.0,30.17,NNE,20,0.0,10.0,38,0.00,,,0.00,,2013-05-25 16:42:00,
2013-05-25 12:52:00,66.0,41.0,30.17,NW,322,1.0,12.0,40,0.00,,,0.00,,2013-05-25 16:52:00,
2013-05-25 13:03:00,67.0,36.0,30.16,SSW,204,0.0,8.0,32,0.00,,,0.00,,2013-05-25 17:03:00,
2013-05-25 13:11:00,67.0,36.0,30.16,SSW,204,0.0,8.0,32,0.00,,,0.00,,2013-05-25 17:11:00,
2013-05-25 13:22:00,68.0,42.0,30.16,WNW,293,1.0,8.0,39,0.00,,,0.00,,2013-05-25 17:22:00,
2013-05-25 13:32:00,69.0,40.0,30.15,WNW,293,2.0,6.0,35,0.00,,,0.00,,2013-05-25 17:32:00,
2013-05-25 13:42:00,69.0,40.0,30.15,WNW,293,2.0,6.0,35,0.00,,,0.00,,2013-05-25 17:42:00,
2013-05-25 13:52:00,70.0,40.0,30.15,WNW,295,0.0,7.0,34,0.00,,,0.00,,2013-05-25 17:52:00,
2013-05-25 14:02:00,70.0,35.0,30.14,NNW,337,0.0,7.0,28,0.00,,,0.00,,2013-05-25 18:02:00,
2013-05-25 14:11:00,70.0,35.0,30.14,NNW,337,0.0,7.0,28,0.00,,,0.00,,2013-05-25 18:11:00,
2013-05-25 14:21:00,70.0,37.0,30.13,NNW,332,1.0,9.0,30,0.00,,,0.00,,2013-05-25 18:21:00,
2013-05-25 14:32:00,71.0,35.0,30.12,NW,312,0.0,11.0,27,0.00,,,0.00,,2013-05-25 18:32:00,
2013-05-25 14:42:00,71.0,35.0,30.12,NW,312,0.0,11.0,27,0.00,,,0.00,,2013-05-25 18:42:00,
2013-05-25 14:52:00,71.0,36.0,30.12,NNE,27,2.0,8.0,28,0.00,,,0.00,,2013-05-25 18:52:00,
2013-05-25 15:01:00,72.0,37.0,30.11,SW,230,0.0,8.0,28,0.00,,,0.00,,2013-05-25 19:01:00,
2013-05-25 15:11:00,72.0,37.0,30.11,SW,230,0.0,8.0,28,0.00,,,0.00,,2013-05-25 19:11:00,
2013-05-25 15:22:00,72.0,36.0,30.11,NW,307,2.0,8.0,27,0.00,,,0.00,,2013-05-25 19:22:00,
2013-05-25 15:32:00,73.0,36.0,30.10,WSW,237,2.0,10.0,26,0.00,,,0.00,,2013-05-25 19:32:00,
2013-05-25 15:42:00,73.0,36.0,30.10,WSW,237,2.0,10.0,26,0.00,,,0.00,,2013-05-25 19:42:00,
2013-05-25 15:52:00,73.0,37.0,30.10,West,261,3.0,9.0,27,0.00,,,0.00,,2013-05-25 19:52:00,
2013-05-25 16:02:00,73.0,38.0,30.09,NW,319,0.0,9.0,28,0.00,,,0.00,,2013-05-25 20:02:00,
2013-05-25 16:11:00,73.0,38.0,30.09,NW,319,0.0,9.0,28,0.00,,,0.00,,2013-05-25 20:11:00,
2013-05-25 16:22:00,73.0,38.0,30.09,NW,304,1.0,7.0,28,0.00,,,0.00,,2013-05-25 20:22:00,
2013-05-25 16:32:00,74.0,41.0,30.09,NW,319,0.0,7.0,30,0.00,,,0.00,,2013-05-25 20:32:00,
2013-05-25 16:42:00,74.0,41.0,30.09,NW,319,0.0,7.0,30,0.00,,,0.00,,2013-05-25 20:42:00,
2013-05-25 16:52:00,74.0,38.0,30.08,NW,307,2.0,7.0,27,0.00,,,0.00,,2013-05-25 20:52:00,
2013-05-25 17:02:00,74.0,39.0,30.08,SW,233,2.0,9.0,28,0.00,,,0.00,,2013-05-25 21:02:00,
2013-05-25 17:11:00,74.0,39.0,30.08,SW,233,2.0,9.0,28,0.00,,,0.00,,2013-05-25 21:11:00,
2013-05-25 17:21:00,75.0,39.0,30.08,WNW,293,0.0,5.0,27,0.00,,,0.00,,2013-05-25 21:21:00,
2013-05-25 17:33:00,75.0,44.0,30.08,NNW,338,0.0,4.0,33,0.00,,,0.00,,2013-05-25 21:33:00,
2013-05-25 17:43:00,75.0,44.0,30.08,NNW,338,0.0,4.0,33,0.00,,,0.00,,2013-05-25 21:43:00,
2013-05-25 17:53:00,73.0,40.0,30.08,WSW,248,0.0,7.0,30,0.00,,,0.00,,2013-05-25 21:53:00,
2013-05-25 18:03:00,73.0,40.0,30.08,SSW,209,2.0,13.0,30,0.00,,,0.00,,2013-05-25 22:03:00,
2013-05-25 18:13:00,73.0,40.0,30.08,SSW,209,2.0,13.0,30,0.00,,,0.00,,2013-05-25 22:13:00,
2013-05-25 18:23:00,74.0,42.0,30.07,WNW,302,1.0,6.0,32,0.00,,,0.00,,2013-05-25 22:23:00,
2013-05-25 18:32:00,74.0,41.0,30.07,NW,320,0.0,6.0,30,0.00,,,0.00,,2013-05-25 22:32:00,
2013-05-25 18:42:00,74.0,41.0,30.07,NW,320,0.0,6.0,30,0.00,,,0.00,,2013-05-25 22:42:00,
2013-05-25 18:52:00,72.0,42.0,30.07,NNW,330,0.0,4.0,34,0.00,,,0.00,,2013-05-25 22:52:00,
2013-05-25 19:02:00,71.0,42.0,30.07,NW,308,0.0,1.0,35,0.00,,,0.00,,2013-05-25 23:02:00,
2013-05-25 19:12:00,71.0,42.0,30.07,NW,308,0.0,1.0,35,0.00,,,0.00,,2013-05-25 23:12:00,
2013-05-25 19:22:00,70.0,45.0,30.07,NW,308,0.0,0.0,41,0.00,,,0.00,,2013-05-25 23:22:00,
2013-05-25 19:32:00,69.0,47.0,30.07,NW,308,0.0,0.0,45,0.00,,,0.00,,2013-05-25 23:32:00,
2013-05-25 19:42:00,69.0,46.0,30.07,NW,308,0.0,0.0,44,0.00,,,0.00,,2013-05-25 23:42:00,
2013-05-25 19:52:00,69.0,46.0,30.07,NW,308,0.0,0.0,44,0.00,,,0.00,,2013-05-25 23:52:00,
2013-05-25 20:02:00,68.0,47.0,30.07,NW,308,0.0,0.0,47,0.00,,,0.00,,2013-05-26 00:02:00,
2013-05-25 20:11:00,68.0,47.0,30.07,NW,308,0.0,0.0,47,0.00,,,0.00,,2013-05-26 00:11:00,
2013-05-25 20:22:00,67.0,48.0,30.07,NW,308,0.0,0.0,50,0.00,,,0.00,,2013-05-26 00:22:00,
2013-05-25 20:31:00,66.0,50.0,30.07,NW,308,0.0,0.0,56,0.00,,,0.00,,2013-05-26 00:31:00,
2013-05-25 20:42:00,66.0,50.0,30.07,NW,308,0.0,0.0,56,0.00,,,0.00,,2013-05-26 00:42:00,
2013-05-25 20:53:00,65.0,51.0,30.07,NW,308,0.0,0.0,60,0.00,,,0.00,,2013-05-26 00:53:00,
2013-05-25 21:01:00,63.0,51.0,30.07,NW,308,0.0,0.0,65,0.00,,,0.00,,2013-05-26 01:01:00,
2013-05-25 21:11:00,63.0,51.0,30.07,NW,308,0.0,0.0,65,0.00,,,0.00,,2013-05-26 01:11:00,
2013-05-25 21:21:00,62.0,51.0,30.08,NW,308,0.0,0.0,66,0.00,,,0.00,,2013-05-26 01:21:00,
2013-05-25 21:32:00,61.0,51.0,30.08,NW,308,0.0,0.0,69,0.00,,,0.00,,2013-05-26 01:32:00,
2013-05-25 21:42:00,61.0,51.0,30.08,NW,308,0.0,0.0,69,0.00,,,0.00,,2013-05-26 01:42:00,
2013-05-25 21:53:00,60.0,52.0,30.09,NW,308,0.0,0.0,74,0.00,,,0.00,,2013-05-26 01:53:00,
2013-05-25 22:02:00,59.0,51.0,30.09,NW,308,0.0,0.0,74,0.00,,,0.00,,2013-05-26 02:02:00,
2013-05-25 22:11:00,59.0,51.0,30.09,NW,308,0.0,0.0,74,0.00,,,0.00,,2013-05-26 02:11:00,
2013-05-25 22:21:00,59.0,51.0,30.10,NW,308,0.0,0.0,75,0.00,,,0.00,,2013-05-26 02:21:00,
2013-05-25 22:32:00,58.0,51.0,30.10,NW,308,0.0,0.0,77,0.00,,,0.00,,2013-05-26 02:32:00,
2013-05-25 22:42:00,58.0,51.0,30.10,NW,308,0.0,0.0,77,0.00,,,0.00,,2013-05-26 02:42:00,
2013-05-25 22:52:00,57.0,51.0,30.11,NW,308,0.0,0.0,79,0.00,,,0.00,,2013-05-26 02:52:00,
2013-05-25 23:01:00,57.0,51.0,30.11,NW,308,0.0,0.0,80,0.00,,,0.00,,2013-05-26 03:01:00,
2013-05-25 23:11:00,57.0,51.0,30.11,NW,308,0.0,0.0,80,0.00,,,0.00,,2013-05-26 03:11:00,
2013-05-25 23:22:00,56.0,51.0,30.11,NW,308,0.0,0.0,82,0.00,,,0.00,,2013-05-26 03:22:00,
2013-05-25 23:33:00,56.0,51.0,30.12,NW,308,0.0,0.0,83,0.00,,,0.00,,2013-05-26 03:33:00,
2013-05-25 23:43:00,56.0,51.0,30.12,NW,308,0.0,0.0,83,0.00,,,0.00,,2013-05-26 03:43:00,
2013-05-25 23:53:00,55.0,50.0,30.11,NW,308,0.0,0.0,84,0.00,,,0.00,,2013-05-26 03:53:00,